sensor_id;sensor_type;location;lat;lon;timestamp;temperature;humidity
20400;DHT22;10359;53.596;22.520;2023-03-04T00:01:34;2.20;1.00
20400;DHT22;10359;53.596;22.520;2023-03-04T00:04:24;2.20;1.00
20400;DHT22;10359;53.596;22.520;2023-03-04T00:07:14;2.10;1.00
20400;DHT22;10359;53.596;22.520;2023-03-04T00:10:09;2.20;1.00
20400;DHT22;10359;53.596;22.520;2023-03-04T00:12:59;2.10;1.00
20400;DHT22;10359;53.596;22.520;2023-03-04T00:15:49;2.10;1.00
20400;DHT22;10359;53.596;22.520;2023-03-04T00:18:39;2.20;1.00
20400;DHT22;10359;53.596;22.520;2023-03-04T00:21:29;2.20;1.00
20400;DHT22;10359;53.596;22.520;2023-03-04T00:24:19;2.20;1.00
20400;DHT22;10359;53.596;22.520;2023-03-04T00:27:10;2.20;99.90
20400;DHT22;10359;53.596;22.520;2023-03-04T00:30:01;2.30;99.90
20400;DHT22;10359;53.596;22.520;2023-03-04T00:32:51;2.30;99.90
20400;DHT22;10359;53.596;22.520;2023-03-04T00:35:41;2.10;99.90
20400;DHT22;10359;53.596;22.520;2023-03-04T00:38:31;2.20;99.90
20400;DHT22;10359;53.596;22.520;2023-03-04T00:41:21;2.20;99.90
20400;DHT22;10359;53.596;22.520;2023-03-04T00:44:12;2.20;99.90
20400;DHT22;10359;53.596;22.520;2023-03-04T00:47:02;2.30;99.90
20400;DHT22;10359;53.596;22.520;2023-03-04T00:49:52;2.30;99.90
20400;DHT22;10359;53.596;22.520;2023-03-04T00:52:41;2.30;99.90
20400;DHT22;10359;53.596;22.520;2023-03-04T00:55:31;2.30;99.90
20400;DHT22;10359;53.596;22.520;2023-03-04T00:58:21;2.30;99.90
20400;DHT22;10359;53.596;22.520;2023-03-04T01:01:12;2.30;99.90
20400;DHT22;10359;53.596;22.520;2023-03-04T01:04:02;2.40;99.90
20400;DHT22;10359;53.596;22.520;2023-03-04T01:06:52;2.40;99.90
20400;DHT22;10359;53.596;22.520;2023-03-04T01:09:41;2.40;99.90
20400;DHT22;10359;53.596;22.520;2023-03-04T01:12:31;2.40;99.90
20400;DHT22;10359;53.596;22.520;2023-03-04T01:15:21;2.40;99.90
20400;DHT22;10359;53.596;22.520;2023-03-04T01:18:14;2.50;99.90
20400;DHT22;10359;53.596;22.520;2023-03-04T01:21:06;2.40;99.90
20400;DHT22;10359;53.596;22.520;2023-03-04T01:23:56;2.50;99.90
20400;DHT22;10359;53.596;22.520;2023-03-04T01:26:47;2.60;99.90
20400;DHT22;10359;53.596;22.520;2023-03-04T01:29:36;2.50;99.90
20400;DHT22;10359;53.596;22.520;2023-03-04T01:32:27;2.50;99.90
20400;DHT22;10359;53.596;22.520;2023-03-04T01:35:18;2.50;99.90
20400;DHT22;10359;53.596;22.520;2023-03-04T01:38:08;2.50;99.90
20400;DHT22;10359;53.596;22.520;2023-03-04T01:40:58;2.50;99.90
20400;DHT22;10359;53.596;22.520;2023-03-04T01:43:48;2.60;99.90
20400;DHT22;10359;53.596;22.520;2023-03-04T01:46:40;2.60;99.90
20400;DHT22;10359;53.596;22.520;2023-03-04T01:49:33;2.60;99.90
20400;DHT22;10359;53.596;22.520;2023-03-04T01:52:26;2.70;99.90
20400;DHT22;10359;53.596;22.520;2023-03-04T01:55:18;2.70;99.90
20400;DHT22;10359;53.596;22.520;2023-03-04T01:58:09;2.80;99.90
20400;DHT22;10359;53.596;22.520;2023-03-04T02:01:00;2.80;99.90
20400;DHT22;10359;53.596;22.520;2023-03-04T02:03:50;2.80;99.90
20400;DHT22;10359;53.596;22.520;2023-03-04T02:06:40;2.70;99.90
20400;DHT22;10359;53.596;22.520;2023-03-04T02:09:33;2.80;99.90
20400;DHT22;10359;53.596;22.520;2023-03-04T02:12:23;2.80;99.90
20400;DHT22;10359;53.596;22.520;2023-03-04T02:15:13;2.70;99.90
20400;DHT22;10359;53.596;22.520;2023-03-04T02:18:09;2.80;99.90
20400;DHT22;10359;53.596;22.520;2023-03-04T02:21:06;2.70;99.90
20400;DHT22;10359;53.596;22.520;2023-03-04T02:24:08;2.70;99.90
20400;DHT22;10359;53.596;22.520;2023-03-04T02:27:02;2.70;99.90
20400;DHT22;10359;53.596;22.520;2023-03-04T02:29:52;2.80;99.90
20400;DHT22;10359;53.596;22.520;2023-03-04T02:32:42;2.80;99.90
20400;DHT22;10359;53.596;22.520;2023-03-04T02:35:31;2.80;99.90
20400;DHT22;10359;53.596;22.520;2023-03-04T02:38:21;2.70;99.90
20400;DHT22;10359;53.596;22.520;2023-03-04T02:41:12;2.70;99.90
20400;DHT22;10359;53.596;22.520;2023-03-04T02:44:15;2.70;99.90
20400;DHT22;10359;53.596;22.520;2023-03-04T02:47:08;2.80;99.90
20400;DHT22;10359;53.596;22.520;2023-03-04T02:49:58;2.80;99.90
20400;DHT22;10359;53.596;22.520;2023-03-04T02:52:48;2.80;99.90
20400;DHT22;10359;53.596;22.520;2023-03-04T02:55:37;2.80;1.00
20400;DHT22;10359;53.596;22.520;2023-03-04T02:58:29;2.80;1.00
20400;DHT22;10359;53.596;22.520;2023-03-04T03:01:20;2.70;1.00
20400;DHT22;10359;53.596;22.520;2023-03-04T03:04:10;2.60;1.00
20400;DHT22;10359;53.596;22.520;2023-03-04T03:07:00;2.50;1.00
20400;DHT22;10359;53.596;22.520;2023-03-04T03:09:50;2.60;1.00
20400;DHT22;10359;53.596;22.520;2023-03-04T03:12:40;2.60;1.00
20400;DHT22;10359;53.596;22.520;2023-03-04T03:15:29;2.70;1.00
20400;DHT22;10359;53.596;22.520;2023-03-04T03:18:21;2.60;1.00
20400;DHT22;10359;53.596;22.520;2023-03-04T03:21:10;2.70;1.00
20400;DHT22;10359;53.596;22.520;2023-03-04T03:24:00;2.70;1.00
20400;DHT22;10359;53.596;22.520;2023-03-04T03:26:50;2.70;1.00
20400;DHT22;10359;53.596;22.520;2023-03-04T03:29:40;2.70;1.00
20400;DHT22;10359;53.596;22.520;2023-03-04T03:32:29;2.70;1.00
20400;DHT22;10359;53.596;22.520;2023-03-04T03:35:22;2.70;1.00
20400;DHT22;10359;53.596;22.520;2023-03-04T03:38:11;2.80;1.00
20400;DHT22;10359;53.596;22.520;2023-03-04T03:41:01;2.80;1.00
20400;DHT22;10359;53.596;22.520;2023-03-04T03:43:51;2.70;1.00
20400;DHT22;10359;53.596;22.520;2023-03-04T03:46:40;2.80;1.00
20400;DHT22;10359;53.596;22.520;2023-03-04T03:49:31;2.80;1.00
20400;DHT22;10359;53.596;22.520;2023-03-04T03:52:22;2.80;1.00
20400;DHT22;10359;53.596;22.520;2023-03-04T03:55:12;2.90;1.00
20400;DHT22;10359;53.596;22.520;2023-03-04T03:58:02;3.00;1.00
20400;DHT22;10359;53.596;22.520;2023-03-04T04:00:51;2.90;1.00
20400;DHT22;10359;53.596;22.520;2023-03-04T04:03:44;2.90;1.00
20400;DHT22;10359;53.596;22.520;2023-03-04T04:06:34;2.90;1.00
20400;DHT22;10359;53.596;22.520;2023-03-04T04:09:25;2.90;1.00
20400;DHT22;10359;53.596;22.520;2023-03-04T04:12:15;3.00;1.00
20400;DHT22;10359;53.596;22.520;2023-03-04T04:15:06;3.00;1.00
20400;DHT22;10359;53.596;22.520;2023-03-04T04:17:56;3.00;1.00
20400;DHT22;10359;53.596;22.520;2023-03-04T04:20:46;3.00;1.00
20400;DHT22;10359;53.596;22.520;2023-03-04T04:23:36;3.00;1.00
20400;DHT22;10359;53.596;22.520;2023-03-04T04:26:27;3.00;1.00
20400;DHT22;10359;53.596;22.520;2023-03-04T04:29:17;2.90;1.00
20400;DHT22;10359;53.596;22.520;2023-03-04T04:32:07;2.90;1.00
20400;DHT22;10359;53.596;22.520;2023-03-04T04:34:57;2.90;1.00
20400;DHT22;10359;53.596;22.520;2023-03-04T04:37:46;2.90;1.00
20400;DHT22;10359;53.596;22.520;2023-03-04T04:40:36;2.80;1.00
20400;DHT22;10359;53.596;22.520;2023-03-04T04:43:27;2.90;1.00
20400;DHT22;10359;53.596;22.520;2023-03-04T04:46:17;2.90;1.00
20400;DHT22;10359;53.596;22.520;2023-03-04T04:49:07;2.90;1.00
20400;DHT22;10359;53.596;22.520;2023-03-04T04:51:57;3.10;1.00
20400;DHT22;10359;53.596;22.520;2023-03-04T04:54:47;3.10;1.00
20400;DHT22;10359;53.596;22.520;2023-03-04T04:57:37;3.10;99.90
20400;DHT22;10359;53.596;22.520;2023-03-04T05:00:28;3.20;99.90
20400;DHT22;10359;53.596;22.520;2023-03-04T05:03:18;3.10;1.00
20400;DHT22;10359;53.596;22.520;2023-03-04T05:06:11;3.10;99.90
20400;DHT22;10359;53.596;22.520;2023-03-04T05:09:01;3.00;1.00
20400;DHT22;10359;53.596;22.520;2023-03-04T05:11:51;3.10;1.00
20400;DHT22;10359;53.596;22.520;2023-03-04T05:14:41;3.10;1.00
20400;DHT22;10359;53.596;22.520;2023-03-04T05:17:32;3.00;1.00
20400;DHT22;10359;53.596;22.520;2023-03-04T05:20:21;3.00;1.00
20400;DHT22;10359;53.596;22.520;2023-03-04T05:23:11;3.10;1.00
20400;DHT22;10359;53.596;22.520;2023-03-04T05:26:01;3.10;1.00
20400;DHT22;10359;53.596;22.520;2023-03-04T05:28:51;3.20;1.00
20400;DHT22;10359;53.596;22.520;2023-03-04T05:31:41;3.10;99.90
20400;DHT22;10359;53.596;22.520;2023-03-04T05:34:32;3.20;99.90
20400;DHT22;10359;53.596;22.520;2023-03-04T05:37:22;3.10;99.90
20400;DHT22;10359;53.596;22.520;2023-03-04T05:40:13;3.20;99.90
20400;DHT22;10359;53.596;22.520;2023-03-04T05:43:03;3.20;99.90
20400;DHT22;10359;53.596;22.520;2023-03-04T05:45:53;3.20;99.90
20400;DHT22;10359;53.596;22.520;2023-03-04T05:48:43;3.20;99.90
20400;DHT22;10359;53.596;22.520;2023-03-04T05:51:35;3.30;99.90
20400;DHT22;10359;53.596;22.520;2023-03-04T05:54:24;3.30;99.90
20400;DHT22;10359;53.596;22.520;2023-03-04T05:57:14;3.20;99.90
20400;DHT22;10359;53.596;22.520;2023-03-04T06:00:05;3.20;99.90
20400;DHT22;10359;53.596;22.520;2023-03-04T06:02:56;3.30;99.90
20400;DHT22;10359;53.596;22.520;2023-03-04T06:05:46;3.30;99.90
20400;DHT22;10359;53.596;22.520;2023-03-04T06:08:37;3.30;99.90
20400;DHT22;10359;53.596;22.520;2023-03-04T06:11:27;3.30;99.90
20400;DHT22;10359;53.596;22.520;2023-03-04T06:14:17;3.40;99.90
20400;DHT22;10359;53.596;22.520;2023-03-04T06:17:07;3.50;99.90
20400;DHT22;10359;53.596;22.520;2023-03-04T06:19:56;3.60;99.90
20400;DHT22;10359;53.596;22.520;2023-03-04T06:22:46;3.70;99.90
20400;DHT22;10359;53.596;22.520;2023-03-04T06:25:37;3.90;99.90
20400;DHT22;10359;53.596;22.520;2023-03-04T06:28:27;4.00;99.90
20400;DHT22;10359;53.596;22.520;2023-03-04T06:31:17;4.10;99.90
20400;DHT22;10359;53.596;22.520;2023-03-04T06:34:07;4.20;99.90
20400;DHT22;10359;53.596;22.520;2023-03-04T06:36:57;4.10;99.90
20400;DHT22;10359;53.596;22.520;2023-03-04T06:39:46;4.20;99.90
20400;DHT22;10359;53.596;22.520;2023-03-04T06:42:39;4.20;99.90
20400;DHT22;10359;53.596;22.520;2023-03-04T06:45:29;4.20;99.90
20400;DHT22;10359;53.596;22.520;2023-03-04T06:48:19;4.20;99.90
20400;DHT22;10359;53.596;22.520;2023-03-04T06:51:09;4.30;99.90
20400;DHT22;10359;53.596;22.520;2023-03-04T06:53:59;4.40;99.90
20400;DHT22;10359;53.596;22.520;2023-03-04T06:56:49;4.30;99.90
20400;DHT22;10359;53.596;22.520;2023-03-04T06:59:40;4.40;99.90
20400;DHT22;10359;53.596;22.520;2023-03-04T07:02:30;4.40;99.90
20400;DHT22;10359;53.596;22.520;2023-03-04T07:05:20;4.40;99.90
20400;DHT22;10359;53.596;22.520;2023-03-04T07:08:10;4.70;99.90
20400;DHT22;10359;53.596;22.520;2023-03-04T07:11:00;4.80;99.90
20400;DHT22;10359;53.596;22.520;2023-03-04T07:13:50;4.90;99.90
20400;DHT22;10359;53.596;22.520;2023-03-04T07:16:45;4.90;99.90
20400;DHT22;10359;53.596;22.520;2023-03-04T07:19:35;5.00;99.90
20400;DHT22;10359;53.596;22.520;2023-03-04T07:22:25;5.10;99.90
20400;DHT22;10359;53.596;22.520;2023-03-04T07:25:15;5.10;99.90
20400;DHT22;10359;53.596;22.520;2023-03-04T07:28:06;5.30;99.90
20400;DHT22;10359;53.596;22.520;2023-03-04T07:30:55;5.30;99.90
20400;DHT22;10359;53.596;22.520;2023-03-04T07:33:47;5.40;99.90
20400;DHT22;10359;53.596;22.520;2023-03-04T07:36:37;5.40;99.90
20400;DHT22;10359;53.596;22.520;2023-03-04T07:39:26;5.40;99.90
20400;DHT22;10359;53.596;22.520;2023-03-04T07:42:16;5.30;99.90
20400;DHT22;10359;53.596;22.520;2023-03-04T07:45:07;5.30;99.90
20400;DHT22;10359;53.596;22.520;2023-03-04T07:47:57;5.30;99.90
20400;DHT22;10359;53.596;22.520;2023-03-04T07:50:49;5.20;99.90
20400;DHT22;10359;53.596;22.520;2023-03-04T07:53:41;5.00;99.90
20400;DHT22;10359;53.596;22.520;2023-03-04T07:56:32;5.10;99.90
20400;DHT22;10359;53.596;22.520;2023-03-04T07:59:22;5.10;99.90
20400;DHT22;10359;53.596;22.520;2023-03-04T08:02:12;5.20;99.90
20400;DHT22;10359;53.596;22.520;2023-03-04T08:05:03;5.20;99.90
20400;DHT22;10359;53.596;22.520;2023-03-04T08:07:54;5.10;99.90
20400;DHT22;10359;53.596;22.520;2023-03-04T08:10:44;5.10;99.90
20400;DHT22;10359;53.596;22.520;2023-03-04T08:13:35;5.00;99.90
20400;DHT22;10359;53.596;22.520;2023-03-04T08:16:25;3.80;99.90
20400;DHT22;10359;53.596;22.520;2023-03-04T08:19:14;3.40;1.00
20400;DHT22;10359;53.596;22.520;2023-03-04T08:22:04;3.00;1.00
20400;DHT22;10359;53.596;22.520;2023-03-04T08:24:56;2.40;1.00
20400;DHT22;10359;53.596;22.520;2023-03-04T08:27:45;1.50;1.00
20400;DHT22;10359;53.596;22.520;2023-03-04T08:30:36;1.30;1.00
20400;DHT22;10359;53.596;22.520;2023-03-04T08:33:27;1.20;1.00
20400;DHT22;10359;53.596;22.520;2023-03-04T08:36:17;0.90;1.00
20400;DHT22;10359;53.596;22.520;2023-03-04T08:39:07;0.80;12.10
20400;DHT22;10359;53.596;22.520;2023-03-04T08:41:59;0.90;99.90
20400;DHT22;10359;53.596;22.520;2023-03-04T08:44:48;0.90;99.90
20400;DHT22;10359;53.596;22.520;2023-03-04T08:47:38;0.80;99.90
20400;DHT22;10359;53.596;22.520;2023-03-04T08:50:29;0.80;99.90
20400;DHT22;10359;53.596;22.520;2023-03-04T08:53:19;1.00;99.90
20400;DHT22;10359;53.596;22.520;2023-03-04T08:56:10;1.30;99.90
20400;DHT22;10359;53.596;22.520;2023-03-04T08:59:02;1.50;99.90
20400;DHT22;10359;53.596;22.520;2023-03-04T09:01:52;1.70;99.90
20400;DHT22;10359;53.596;22.520;2023-03-04T09:04:41;1.80;99.90
20400;DHT22;10359;53.596;22.520;2023-03-04T09:07:31;2.10;99.90
20400;DHT22;10359;53.596;22.520;2023-03-04T09:10:21;2.30;99.90
20400;DHT22;10359;53.596;22.520;2023-03-04T09:13:11;2.30;12.80
20400;DHT22;10359;53.596;22.520;2023-03-04T09:16:08;2.50;26.90
20400;DHT22;10359;53.596;22.520;2023-03-04T09:19:02;2.60;1.00
20400;DHT22;10359;53.596;22.520;2023-03-04T09:22:00;2.70;1.00
20400;DHT22;10359;53.596;22.520;2023-03-04T09:24:58;2.90;1.00
20400;DHT22;10359;53.596;22.520;2023-03-04T09:27:54;3.20;1.00
20400;DHT22;10359;53.596;22.520;2023-03-04T09:30:50;3.20;1.00
20400;DHT22;10359;53.596;22.520;2023-03-04T09:33:46;3.20;1.00
20400;DHT22;10359;53.596;22.520;2023-03-04T09:36:36;3.40;1.00
20400;DHT22;10359;53.596;22.520;2023-03-04T09:39:26;3.50;1.00
20400;DHT22;10359;53.596;22.520;2023-03-04T09:42:23;3.20;1.00
20400;DHT22;10359;53.596;22.520;2023-03-04T09:45:16;3.20;1.00
20400;DHT22;10359;53.596;22.520;2023-03-04T09:48:10;3.20;1.00
20400;DHT22;10359;53.596;22.520;2023-03-04T09:51:18;3.40;1.00
20400;DHT22;10359;53.596;22.520;2023-03-04T09:54:10;3.30;1.00
20400;DHT22;10359;53.596;22.520;2023-03-04T09:57:18;3.10;1.00
20400;DHT22;10359;53.596;22.520;2023-03-04T10:00:13;3.00;1.00
20400;DHT22;10359;53.596;22.520;2023-03-04T10:03:15;3.00;1.00
20400;DHT22;10359;53.596;22.520;2023-03-04T10:06:10;3.10;1.00
20400;DHT22;10359;53.596;22.520;2023-03-04T10:09:03;3.10;1.00
20400;DHT22;10359;53.596;22.520;2023-03-04T10:11:59;2.90;1.00
20400;DHT22;10359;53.596;22.520;2023-03-04T10:14:52;3.00;1.00
20400;DHT22;10359;53.596;22.520;2023-03-04T10:17:46;3.20;1.00
20400;DHT22;10359;53.596;22.520;2023-03-04T10:20:47;3.20;1.00
20400;DHT22;10359;53.596;22.520;2023-03-04T10:23:40;3.30;1.00
20400;DHT22;10359;53.596;22.520;2023-03-04T10:26:30;3.40;1.00
20400;DHT22;10359;53.596;22.520;2023-03-04T10:29:24;3.30;1.00
20400;DHT22;10359;53.596;22.520;2023-03-04T10:32:15;3.00;1.00
20400;DHT22;10359;53.596;22.520;2023-03-04T10:35:11;3.30;1.00
20400;DHT22;10359;53.596;22.520;2023-03-04T10:38:02;3.30;1.00
20400;DHT22;10359;53.596;22.520;2023-03-04T10:40:55;3.50;1.00
20400;DHT22;10359;53.596;22.520;2023-03-04T10:43:50;3.60;1.00
20400;DHT22;10359;53.596;22.520;2023-03-04T10:46:51;3.70;1.00
20400;DHT22;10359;53.596;22.520;2023-03-04T10:49:50;3.90;1.00
20400;DHT22;10359;53.596;22.520;2023-03-04T10:52:45;3.90;1.00
20400;DHT22;10359;53.596;22.520;2023-03-04T10:55:43;3.80;1.00
20400;DHT22;10359;53.596;22.520;2023-03-04T10:58:34;3.80;1.00
20400;DHT22;10359;53.596;22.520;2023-03-04T11:01:24;3.90;1.00
20400;DHT22;10359;53.596;22.520;2023-03-04T11:04:17;3.40;99.90
20400;DHT22;10359;53.596;22.520;2023-03-04T11:07:08;3.60;99.90
20400;DHT22;10359;53.596;22.520;2023-03-04T11:10:08;3.60;99.90
20400;DHT22;10359;53.596;22.520;2023-03-04T11:13:01;3.40;99.90
20400;DHT22;10359;53.596;22.520;2023-03-04T11:16:00;3.70;99.90
20400;DHT22;10359;53.596;22.520;2023-03-04T11:18:52;3.70;99.90
20400;DHT22;10359;53.596;22.520;2023-03-04T11:21:43;3.70;99.90
20400;DHT22;10359;53.596;22.520;2023-03-04T11:24:33;4.00;99.90
20400;DHT22;10359;53.596;22.520;2023-03-04T11:27:33;4.20;99.90
20400;DHT22;10359;53.596;22.520;2023-03-04T11:30:31;4.40;99.90
20400;DHT22;10359;53.596;22.520;2023-03-04T11:33:31;4.30;99.90
20400;DHT22;10359;53.596;22.520;2023-03-04T11:36:32;4.20;99.90
20400;DHT22;10359;53.596;22.520;2023-03-04T11:39:28;4.10;99.90
20400;DHT22;10359;53.596;22.520;2023-03-04T11:42:27;4.40;99.90
20400;DHT22;10359;53.596;22.520;2023-03-04T11:45:24;4.10;99.90
20400;DHT22;10359;53.596;22.520;2023-03-04T11:48:32;3.80;99.90
20400;DHT22;10359;53.596;22.520;2023-03-04T11:51:30;3.70;99.90
20400;DHT22;10359;53.596;22.520;2023-03-04T11:54:31;3.90;99.90
20400;DHT22;10359;53.596;22.520;2023-03-04T11:57:30;3.90;99.90
20400;DHT22;10359;53.596;22.520;2023-03-04T12:00:32;2.60;99.90
20400;DHT22;10359;53.596;22.520;2023-03-04T12:03:49;1.90;99.90
20400;DHT22;10359;53.596;22.520;2023-03-04T12:06:53;1.20;1.00
20400;DHT22;10359;53.596;22.520;2023-03-04T12:09:59;0.80;1.00
20400;DHT22;10359;53.596;22.520;2023-03-04T12:13:15;0.80;1.00
20400;DHT22;10359;53.596;22.520;2023-03-04T12:16:21;1.20;1.00
20400;DHT22;10359;53.596;22.520;2023-03-04T12:19:25;1.40;1.00
20400;DHT22;10359;53.596;22.520;2023-03-04T12:22:35;1.30;1.00
20400;DHT22;10359;53.596;22.520;2023-03-04T12:25:40;0.90;1.00
20400;DHT22;10359;53.596;22.520;2023-03-04T12:28:42;0.50;1.00
20400;DHT22;10359;53.596;22.520;2023-03-04T12:31:40;0.40;1.00
20400;DHT22;10359;53.596;22.520;2023-03-04T12:34:55;0.30;1.00
20400;DHT22;10359;53.596;22.520;2023-03-04T12:41:25;0.40;1.00
20400;DHT22;10359;53.596;22.520;2023-03-04T12:44:18;0.40;1.00
20400;DHT22;10359;53.596;22.520;2023-03-04T12:47:27;0.80;1.00
20400;DHT22;10359;53.596;22.520;2023-03-04T12:50:37;1.00;1.00
20400;DHT22;10359;53.596;22.520;2023-03-04T12:53:38;0.50;1.00
20400;DHT22;10359;53.596;22.520;2023-03-04T12:56:39;0.20;1.00
20400;DHT22;10359;53.596;22.520;2023-03-04T12:59:35;0.10;1.00
20400;DHT22;10359;53.596;22.520;2023-03-04T13:02:38;-0.10;1.00
20400;DHT22;10359;53.596;22.520;2023-03-04T13:05:43;0.20;1.00
20400;DHT22;10359;53.596;22.520;2023-03-04T13:08:42;0.60;1.00
20400;DHT22;10359;53.596;22.520;2023-03-04T13:11:43;0.60;1.00
20400;DHT22;10359;53.596;22.520;2023-03-04T13:14:34;0.80;1.00
20400;DHT22;10359;53.596;22.520;2023-03-04T13:17:39;0.80;1.00
20400;DHT22;10359;53.596;22.520;2023-03-04T13:20:36;0.90;1.00
20400;DHT22;10359;53.596;22.520;2023-03-04T13:23:27;0.50;1.00
20400;DHT22;10359;53.596;22.520;2023-03-04T13:26:29;0.20;1.00
20400;DHT22;10359;53.596;22.520;2023-03-04T13:29:33;0.30;1.00
20400;DHT22;10359;53.596;22.520;2023-03-04T13:32:35;0.30;1.00
20400;DHT22;10359;53.596;22.520;2023-03-04T13:35:49;0.60;1.00
20400;DHT22;10359;53.596;22.520;2023-03-04T13:38:40;0.50;1.00
20400;DHT22;10359;53.596;22.520;2023-03-04T13:41:33;0.20;1.00
20400;DHT22;10359;53.596;22.520;2023-03-04T13:45:00;-0.20;1.00
20400;DHT22;10359;53.596;22.520;2023-03-04T13:47:51;0.00;1.00
20400;DHT22;10359;53.596;22.520;2023-03-04T13:50:45;0.00;1.00
20400;DHT22;10359;53.596;22.520;2023-03-04T13:53:42;-0.30;1.00
20400;DHT22;10359;53.596;22.520;2023-03-04T13:56:33;-0.60;1.00
20400;DHT22;10359;53.596;22.520;2023-03-04T13:59:31;-0.70;1.00
20400;DHT22;10359;53.596;22.520;2023-03-04T14:02:23;-0.70;1.00
20400;DHT22;10359;53.596;22.520;2023-03-04T14:05:14;-0.80;1.00
20400;DHT22;10359;53.596;22.520;2023-03-04T14:08:17;-0.80;1.00
20400;DHT22;10359;53.596;22.520;2023-03-04T14:11:13;-0.80;1.00
20400;DHT22;10359;53.596;22.520;2023-03-04T14:14:05;-0.80;1.00
20400;DHT22;10359;53.596;22.520;2023-03-04T14:16:57;-0.80;1.00
20400;DHT22;10359;53.596;22.520;2023-03-04T14:19:48;-0.70;1.00
20400;DHT22;10359;53.596;22.520;2023-03-04T14:22:41;-0.80;1.00
20400;DHT22;10359;53.596;22.520;2023-03-04T14:25:32;-1.00;1.00
20400;DHT22;10359;53.596;22.520;2023-03-04T14:28:25;-1.10;99.90
20400;DHT22;10359;53.596;22.520;2023-03-04T14:31:18;-1.10;99.90
20400;DHT22;10359;53.596;22.520;2023-03-04T14:34:24;-0.90;99.90
20400;DHT22;10359;53.596;22.520;2023-03-04T14:37:20;-0.50;99.90
20400;DHT22;10359;53.596;22.520;2023-03-04T14:40:19;-0.10;99.90
20400;DHT22;10359;53.596;22.520;2023-03-04T14:43:12;-0.20;99.90
20400;DHT22;10359;53.596;22.520;2023-03-04T14:46:11;-0.40;99.90
20400;DHT22;10359;53.596;22.520;2023-03-04T14:49:03;-0.80;99.90
20400;DHT22;10359;53.596;22.520;2023-03-04T14:51:54;-1.20;1.00
20400;DHT22;10359;53.596;22.520;2023-03-04T14:55:00;-1.30;1.00
20400;DHT22;10359;53.596;22.520;2023-03-04T14:57:52;-1.40;1.00
20400;DHT22;10359;53.596;22.520;2023-03-04T15:00:46;-1.40;1.00
20400;DHT22;10359;53.596;22.520;2023-03-04T15:03:39;-1.60;1.00
20400;DHT22;10359;53.596;22.520;2023-03-04T15:06:32;-1.70;1.00
20400;DHT22;10359;53.596;22.520;2023-03-04T15:09:25;-1.80;1.00
20400;DHT22;10359;53.596;22.520;2023-03-04T15:12:23;-1.80;1.00
20400;DHT22;10359;53.596;22.520;2023-03-04T15:15:45;-1.80;1.00
20400;DHT22;10359;53.596;22.520;2023-03-04T15:18:38;-1.80;1.00
20400;DHT22;10359;53.596;22.520;2023-03-04T15:21:41;-1.70;1.00
20400;DHT22;10359;53.596;22.520;2023-03-04T15:24:34;-1.70;1.00
20400;DHT22;10359;53.596;22.520;2023-03-04T15:27:31;-1.70;1.00
20400;DHT22;10359;53.596;22.520;2023-03-04T15:30:24;-2.00;1.00
20400;DHT22;10359;53.596;22.520;2023-03-04T15:33:14;-1.50;1.00
20400;DHT22;10359;53.596;22.520;2023-03-04T15:36:13;-1.40;1.00
20400;DHT22;10359;53.596;22.520;2023-03-04T15:39:03;-1.30;1.00
20400;DHT22;10359;53.596;22.520;2023-03-04T15:41:53;-1.10;1.00
20400;DHT22;10359;53.596;22.520;2023-03-04T15:44:44;-1.10;1.00
20400;DHT22;10359;53.596;22.520;2023-03-04T15:47:35;-1.10;1.00
20400;DHT22;10359;53.596;22.520;2023-03-04T15:50:30;-1.30;1.00
20400;DHT22;10359;53.596;22.520;2023-03-04T15:53:26;-1.60;1.00
20400;DHT22;10359;53.596;22.520;2023-03-04T15:56:19;-1.90;1.00
20400;DHT22;10359;53.596;22.520;2023-03-04T15:59:13;-2.10;1.00
20400;DHT22;10359;53.596;22.520;2023-03-04T16:02:11;-2.30;1.00
20400;DHT22;10359;53.596;22.520;2023-03-04T16:05:10;-2.40;1.00
20400;DHT22;10359;53.596;22.520;2023-03-04T16:08:03;-2.80;1.00
20400;DHT22;10359;53.596;22.520;2023-03-04T16:11:00;-2.50;1.00
20400;DHT22;10359;53.596;22.520;2023-03-04T16:13:51;-2.80;1.00
20400;DHT22;10359;53.596;22.520;2023-03-04T16:16:46;-2.50;1.00
20400;DHT22;10359;53.596;22.520;2023-03-04T16:19:38;-2.80;1.00
20400;DHT22;10359;53.596;22.520;2023-03-04T16:22:29;-2.50;1.00
20400;DHT22;10359;53.596;22.520;2023-03-04T16:25:21;-2.70;1.00
20400;DHT22;10359;53.596;22.520;2023-03-04T16:28:14;-3.10;1.00
20400;DHT22;10359;53.596;22.520;2023-03-04T16:31:05;-3.10;1.00
20400;DHT22;10359;53.596;22.520;2023-03-04T16:33:56;-2.60;1.00
20400;DHT22;10359;53.596;22.520;2023-03-04T16:36:47;-2.60;1.00
20400;DHT22;10359;53.596;22.520;2023-03-04T16:39:42;-2.70;1.00
20400;DHT22;10359;53.596;22.520;2023-03-04T16:42:33;-2.70;1.00
20400;DHT22;10359;53.596;22.520;2023-03-04T16:45:27;-2.90;1.00
20400;DHT22;10359;53.596;22.520;2023-03-04T16:48:18;-2.60;1.00
20400;DHT22;10359;53.596;22.520;2023-03-04T16:51:13;-2.60;1.00
20400;DHT22;10359;53.596;22.520;2023-03-04T16:54:04;-2.50;1.00
20400;DHT22;10359;53.596;22.520;2023-03-04T16:56:56;-2.50;1.00
20400;DHT22;10359;53.596;22.520;2023-03-04T16:59:47;-2.60;1.00
20400;DHT22;10359;53.596;22.520;2023-03-04T17:02:43;-2.80;1.00
20400;DHT22;10359;53.596;22.520;2023-03-04T17:05:33;-2.70;1.00
20400;DHT22;10359;53.596;22.520;2023-03-04T17:08:24;-2.80;1.00
20400;DHT22;10359;53.596;22.520;2023-03-04T17:11:17;-2.60;1.00
20400;DHT22;10359;53.596;22.520;2023-03-04T17:14:08;-2.70;1.00
20400;DHT22;10359;53.596;22.520;2023-03-04T17:16:58;-2.80;1.00
20400;DHT22;10359;53.596;22.520;2023-03-04T17:19:52;-2.80;1.00
20400;DHT22;10359;53.596;22.520;2023-03-04T17:22:43;-2.80;1.00
20400;DHT22;10359;53.596;22.520;2023-03-04T17:25:35;-2.80;1.00
20400;DHT22;10359;53.596;22.520;2023-03-04T17:28:28;-2.70;1.00
20400;DHT22;10359;53.596;22.520;2023-03-04T17:31:20;-2.80;1.00
20400;DHT22;10359;53.596;22.520;2023-03-04T17:34:11;-2.70;1.00
20400;DHT22;10359;53.596;22.520;2023-03-04T17:37:06;-2.60;1.00
20400;DHT22;10359;53.596;22.520;2023-03-04T17:39:57;-2.90;1.00
20400;DHT22;10359;53.596;22.520;2023-03-04T17:42:48;-2.70;1.00
20400;DHT22;10359;53.596;22.520;2023-03-04T17:45:45;-2.80;1.00
20400;DHT22;10359;53.596;22.520;2023-03-04T17:48:37;-2.70;1.00
20400;DHT22;10359;53.596;22.520;2023-03-04T17:51:31;-2.30;1.00
20400;DHT22;10359;53.596;22.520;2023-03-04T17:54:24;-2.10;1.00
20400;DHT22;10359;53.596;22.520;2023-03-04T17:57:16;-2.10;1.00
20400;DHT22;10359;53.596;22.520;2023-03-04T18:00:10;-2.10;1.00
20400;DHT22;10359;53.596;22.520;2023-03-04T18:03:02;-2.30;1.00
20400;DHT22;10359;53.596;22.520;2023-03-04T18:05:53;-2.20;1.00
20400;DHT22;10359;53.596;22.520;2023-03-04T18:08:46;-2.10;1.00
20400;DHT22;10359;53.596;22.520;2023-03-04T18:11:40;-2.30;1.00
20400;DHT22;10359;53.596;22.520;2023-03-04T18:14:31;-2.10;1.00
20400;DHT22;10359;53.596;22.520;2023-03-04T18:17:24;-2.20;1.00
20400;DHT22;10359;53.596;22.520;2023-03-04T18:20:18;-2.20;1.00
20400;DHT22;10359;53.596;22.520;2023-03-04T18:23:10;-2.30;1.00